sensor_id;sensor_type;location;lat;lon;timestamp;P1;durP1;ratioP1;P2;durP2;ratioP2
20185;SDS011;10252;48.792;8.582;2023-12-04T00:04:00;10.73;;;5.60;;
20185;SDS011;10252;48.792;8.582;2023-12-04T00:09:02;10.55;;;5.85;;
20185;SDS011;10252;48.792;8.582;2023-12-04T00:14:03;9.90;;;6.18;;
20185;SDS011;10252;48.792;8.582;2023-12-04T00:19:04;12.32;;;5.47;;
20185;SDS011;10252;48.792;8.582;2023-12-04T00:24:06;10.35;;;5.22;;
20185;SDS011;10252;48.792;8.582;2023-12-04T00:29:08;12.00;;;6.00;;
20185;SDS011;10252;48.792;8.582;2023-12-04T00:34:09;10.55;;;5.88;;
20185;SDS011;10252;48.792;8.582;2023-12-04T00:39:12;10.82;;;5.05;;
20185;SDS011;10252;48.792;8.582;2023-12-04T00:44:14;8.88;;;4.93;;
20185;SDS011;10252;48.792;8.582;2023-12-04T00:49:15;12.30;;;5.47;;
20185;SDS011;10252;48.792;8.582;2023-12-04T00:54:16;10.82;;;5.43;;
20185;SDS011;10252;48.792;8.582;2023-12-04T00:59:18;8.48;;;4.82;;
20185;SDS011;10252;48.792;8.582;2023-12-04T01:04:20;10.43;;;4.68;;
20185;SDS011;10252;48.792;8.582;2023-12-04T01:09:21;10.02;;;5.88;;
20185;SDS011;10252;48.792;8.582;2023-12-04T01:14:24;11.75;;;5.75;;
20185;SDS011;10252;48.792;8.582;2023-12-04T01:19:26;12.15;;;5.53;;
20185;SDS011;10252;48.792;8.582;2023-12-04T01:24:27;11.25;;;5.18;;
20185;SDS011;10252;48.792;8.582;2023-12-04T01:29:28;11.55;;;5.70;;
20185;SDS011;10252;48.792;8.582;2023-12-04T01:34:32;8.05;;;4.70;;
20185;SDS011;10252;48.792;8.582;2023-12-04T01:39:33;9.23;;;5.03;;
20185;SDS011;10252;48.792;8.582;2023-12-04T01:44:35;8.05;;;4.60;;
20185;SDS011;10252;48.792;8.582;2023-12-04T01:49:36;10.43;;;5.07;;
20185;SDS011;10252;48.792;8.582;2023-12-04T01:54:38;8.35;;;4.80;;
20185;SDS011;10252;48.792;8.582;2023-12-04T01:59:40;8.77;;;4.60;;
20185;SDS011;10252;48.792;8.582;2023-12-04T02:04:41;8.25;;;4.30;;
20185;SDS011;10252;48.792;8.582;2023-12-04T02:09:43;7.35;;;3.85;;
20185;SDS011;10252;48.792;8.582;2023-12-04T02:14:44;7.75;;;4.07;;
20185;SDS011;10252;48.792;8.582;2023-12-04T02:19:46;7.50;;;4.47;;
20185;SDS011;10252;48.792;8.582;2023-12-04T02:24:47;7.35;;;3.78;;
20185;SDS011;10252;48.792;8.582;2023-12-04T02:29:58;5.30;;;3.00;;
20185;SDS011;10252;48.792;8.582;2023-12-04T02:35:02;7.20;;;3.53;;
20185;SDS011;10252;48.792;8.582;2023-12-04T02:40:04;5.68;;;3.42;;
20185;SDS011;10252;48.792;8.582;2023-12-04T02:45:07;7.68;;;3.58;;
20185;SDS011;10252;48.792;8.582;2023-12-04T02:50:09;5.72;;;3.60;;
20185;SDS011;10252;48.792;8.582;2023-12-04T02:55:11;5.45;;;2.80;;
20185;SDS011;10252;48.792;8.582;2023-12-04T03:00:12;6.15;;;2.97;;
20185;SDS011;10252;48.792;8.582;2023-12-04T03:05:14;6.28;;;2.88;;
20185;SDS011;10252;48.792;8.582;2023-12-04T03:10:15;4.35;;;2.70;;
20185;SDS011;10252;48.792;8.582;2023-12-04T03:15:17;4.47;;;2.47;;
20185;SDS011;10252;48.792;8.582;2023-12-04T03:20:19;4.95;;;2.97;;
20185;SDS011;10252;48.792;8.582;2023-12-04T03:25:20;2.83;;;2.20;;
20185;SDS011;10252;48.792;8.582;2023-12-04T03:30:22;4.78;;;2.80;;
20185;SDS011;10252;48.792;8.582;2023-12-04T03:35:23;5.55;;;2.42;;
20185;SDS011;10252;48.792;8.582;2023-12-04T03:40:25;4.50;;;2.50;;
20185;SDS011;10252;48.792;8.582;2023-12-04T03:45:26;5.32;;;2.90;;
20185;SDS011;10252;48.792;8.582;2023-12-04T03:50:28;5.60;;;2.60;;
20185;SDS011;10252;48.792;8.582;2023-12-04T03:55:29;5.10;;;2.63;;
20185;SDS011;10252;48.792;8.582;2023-12-04T04:00:30;2.90;;;1.85;;
20185;SDS011;10252;48.792;8.582;2023-12-04T04:05:32;4.18;;;2.45;;
20185;SDS011;10252;48.792;8.582;2023-12-04T04:10:34;4.03;;;2.42;;
20185;SDS011;10252;48.792;8.582;2023-12-04T04:15:35;3.58;;;2.30;;
20185;SDS011;10252;48.792;8.582;2023-12-04T04:20:37;4.70;;;2.72;;
20185;SDS011;10252;48.792;8.582;2023-12-04T04:25:38;4.32;;;2.67;;
20185;SDS011;10252;48.792;8.582;2023-12-04T04:30:40;4.50;;;2.70;;
20185;SDS011;10252;48.792;8.582;2023-12-04T04:35:41;4.78;;;2.70;;
20185;SDS011;10252;48.792;8.582;2023-12-04T04:40:43;3.60;;;2.60;;
20185;SDS011;10252;48.792;8.582;2023-12-04T04:45:44;4.93;;;2.80;;
20185;SDS011;10252;48.792;8.582;2023-12-04T04:50:46;6.03;;;2.92;;
20185;SDS011;10252;48.792;8.582;2023-12-04T04:55:48;3.90;;;2.40;;
20185;SDS011;10252;48.792;8.582;2023-12-04T05:00:49;6.53;;;2.50;;
20185;SDS011;10252;48.792;8.582;2023-12-04T05:05:54;12.63;;;5.70;;
20185;SDS011;10252;48.792;8.582;2023-12-04T05:10:56;9.02;;;4.70;;
20185;SDS011;10252;48.792;8.582;2023-12-04T05:15:57;6.38;;;3.45;;
20185;SDS011;10252;48.792;8.582;2023-12-04T05:20:59;8.23;;;3.42;;
20185;SDS011;10252;48.792;8.582;2023-12-04T05:26:00;4.10;;;3.05;;
20185;SDS011;10252;48.792;8.582;2023-12-04T05:31:02;4.45;;;2.92;;
20185;SDS011;10252;48.792;8.582;2023-12-04T05:36:04;5.47;;;2.90;;
20185;SDS011;10252;48.792;8.582;2023-12-04T05:41:07;6.13;;;2.90;;
20185;SDS011;10252;48.792;8.582;2023-12-04T05:46:08;4.18;;;2.45;;
20185;SDS011;10252;48.792;8.582;2023-12-04T05:51:10;4.80;;;3.17;;
20185;SDS011;10252;48.792;8.582;2023-12-04T05:56:12;7.85;;;3.10;;
20185;SDS011;10252;48.792;8.582;2023-12-04T06:01:14;13.07;;;6.78;;
20185;SDS011;10252;48.792;8.582;2023-12-04T06:06:15;8.55;;;3.83;;
20185;SDS011;10252;48.792;8.582;2023-12-04T06:11:17;5.13;;;3.08;;
20185;SDS011;10252;48.792;8.582;2023-12-04T06:16:18;4.03;;;2.95;;
20185;SDS011;10252;48.792;8.582;2023-12-04T06:21:20;6.65;;;4.43;;
20185;SDS011;10252;48.792;8.582;2023-12-04T06:26:22;5.18;;;3.42;;
20185;SDS011;10252;48.792;8.582;2023-12-04T06:31:23;4.53;;;2.85;;
20185;SDS011;10252;48.792;8.582;2023-12-04T06:36:25;7.68;;;3.75;;
20185;SDS011;10252;48.792;8.582;2023-12-04T06:41:28;5.00;;;3.45;;
20185;SDS011;10252;48.792;8.582;2023-12-04T06:46:30;7.20;;;3.95;;
20185;SDS011;10252;48.792;8.582;2023-12-04T06:51:32;11.00;;;6.30;;
20185;SDS011;10252;48.792;8.582;2023-12-04T06:56:33;14.05;;;7.40;;
20185;SDS011;10252;48.792;8.582;2023-12-04T07:01:35;6.35;;;4.35;;
20185;SDS011;10252;48.792;8.582;2023-12-04T07:06:37;5.00;;;3.22;;
20185;SDS011;10252;48.792;8.582;2023-12-04T07:11:38;6.18;;;3.47;;
20185;SDS011;10252;48.792;8.582;2023-12-04T07:16:40;5.03;;;3.05;;
20185;SDS011;10252;48.792;8.582;2023-12-04T07:21:42;5.85;;;3.67;;
20185;SDS011;10252;48.792;8.582;2023-12-04T07:26:43;8.93;;;4.45;;
20185;SDS011;10252;48.792;8.582;2023-12-04T07:31:45;5.78;;;3.10;;
20185;SDS011;10252;48.792;8.582;2023-12-04T07:36:46;4.93;;;3.22;;
20185;SDS011;10252;48.792;8.582;2023-12-04T07:41:48;4.47;;;2.90;;
20185;SDS011;10252;48.792;8.582;2023-12-04T07:46:51;4.70;;;3.10;;
20185;SDS011;10252;48.792;8.582;2023-12-04T07:51:52;6.50;;;3.63;;
20185;SDS011;10252;48.792;8.582;2023-12-04T07:56:54;19.60;;;8.23;;
20185;SDS011;10252;48.792;8.582;2023-12-04T08:01:56;8.43;;;4.20;;
20185;SDS011;10252;48.792;8.582;2023-12-04T08:06:57;7.00;;;3.92;;
20185;SDS011;10252;48.792;8.582;2023-12-04T08:11:58;7.47;;;4.07;;
20185;SDS011;10252;48.792;8.582;2023-12-04T08:17:00;8.00;;;4.20;;
20185;SDS011;10252;48.792;8.582;2023-12-04T08:22:01;5.13;;;3.42;;
20185;SDS011;10252;48.792;8.582;2023-12-04T08:27:03;6.68;;;4.45;;
20185;SDS011;10252;48.792;8.582;2023-12-04T08:32:04;7.35;;;4.28;;
20185;SDS011;10252;48.792;8.582;2023-12-04T08:37:06;5.13;;;3.70;;
20185;SDS011;10252;48.792;8.582;2023-12-04T08:42:07;4.95;;;3.55;;
20185;SDS011;10252;48.792;8.582;2023-12-04T08:47:09;8.00;;;4.03;;
20185;SDS011;10252;48.792;8.582;2023-12-04T08:52:12;6.90;;;4.00;;
20185;SDS011;10252;48.792;8.582;2023-12-04T08:57:14;7.00;;;4.15;;
20185;SDS011;10252;48.792;8.582;2023-12-04T09:02:16;7.95;;;4.22;;
20185;SDS011;10252;48.792;8.582;2023-12-04T09:07:17;5.80;;;3.53;;
20185;SDS011;10252;48.792;8.582;2023-12-04T09:12:19;6.35;;;4.03;;
20185;SDS011;10252;48.792;8.582;2023-12-04T09:17:20;5.05;;;3.38;;
20185;SDS011;10252;48.792;8.582;2023-12-04T09:22:22;4.50;;;3.08;;
20185;SDS011;10252;48.792;8.582;2023-12-04T09:27:23;5.32;;;3.53;;
20185;SDS011;10252;48.792;8.582;2023-12-04T09:32:28;5.07;;;3.13;;
20185;SDS011;10252;48.792;8.582;2023-12-04T09:37:30;5.32;;;3.45;;
20185;SDS011;10252;48.792;8.582;2023-12-04T09:42:32;8.30;;;5.55;;
20185;SDS011;10252;48.792;8.582;2023-12-04T09:47:34;9.93;;;4.03;;
20185;SDS011;10252;48.792;8.582;2023-12-04T09:52:37;6.70;;;3.65;;
20185;SDS011;10252;48.792;8.582;2023-12-04T09:57:38;6.00;;;3.33;;
20185;SDS011;10252;48.792;8.582;2023-12-04T10:02:41;6.50;;;3.72;;
20185;SDS011;10252;48.792;8.582;2023-12-04T10:07:42;5.78;;;3.95;;
20185;SDS011;10252;48.792;8.582;2023-12-04T10:12:44;6.95;;;3.95;;
20185;SDS011;10252;48.792;8.582;2023-12-04T10:17:46;7.57;;;3.90;;
20185;SDS011;10252;48.792;8.582;2023-12-04T10:22:57;6.60;;;3.83;;
20185;SDS011;10252;48.792;8.582;2023-12-04T10:28:09;5.60;;;3.40;;
20185;SDS011;10252;48.792;8.582;2023-12-04T10:33:11;5.57;;;4.03;;
20185;SDS011;10252;48.792;8.582;2023-12-04T10:38:14;7.93;;;4.20;;
20185;SDS011;10252;48.792;8.582;2023-12-04T10:43:19;4.35;;;2.60;;
20185;SDS011;10252;48.792;8.582;2023-12-04T10:48:21;4.68;;;2.65;;
20185;SDS011;10252;48.792;8.582;2023-12-04T10:53:23;3.72;;;2.88;;
20185;SDS011;10252;48.792;8.582;2023-12-04T10:58:26;4.00;;;2.50;;
20185;SDS011;10252;48.792;8.582;2023-12-04T11:03:32;6.28;;;2.60;;
20185;SDS011;10252;48.792;8.582;2023-12-04T11:08:36;4.15;;;2.80;;
20185;SDS011;10252;48.792;8.582;2023-12-04T11:13:39;4.40;;;3.38;;
20185;SDS011;10252;48.792;8.582;2023-12-04T11:18:44;5.65;;;3.22;;
20185;SDS011;10252;48.792;8.582;2023-12-04T11:23:49;5.47;;;3.72;;
20185;SDS011;10252;48.792;8.582;2023-12-04T11:28:51;5.95;;;3.47;;
20185;SDS011;10252;48.792;8.582;2023-12-04T11:33:52;6.93;;;3.88;;
20185;SDS011;10252;48.792;8.582;2023-12-04T11:38:54;6.20;;;4.20;;
20185;SDS011;10252;48.792;8.582;2023-12-04T11:43:59;7.78;;;4.55;;
20185;SDS011;10252;48.792;8.582;2023-12-04T11:54:21;6.88;;;4.43;;
20185;SDS011;10252;48.792;8.582;2023-12-04T11:59:26;15.52;;;10.02;;
20185;SDS011;10252;48.792;8.582;2023-12-04T12:04:27;10.00;;;8.27;;
20185;SDS011;10252;48.792;8.582;2023-12-04T12:09:29;10.00;;;4.75;;
20185;SDS011;10252;48.792;8.582;2023-12-04T12:14:32;7.20;;;4.07;;
20185;SDS011;10252;48.792;8.582;2023-12-04T12:19:34;6.25;;;3.67;;
20185;SDS011;10252;48.792;8.582;2023-12-04T12:24:35;6.63;;;3.92;;
20185;SDS011;10252;48.792;8.582;2023-12-04T12:29:37;5.57;;;3.72;;
20185;SDS011;10252;48.792;8.582;2023-12-04T12:34:39;6.07;;;3.90;;
20185;SDS011;10252;48.792;8.582;2023-12-04T12:39:41;4.70;;;3.88;;
20185;SDS011;10252;48.792;8.582;2023-12-04T12:44:42;6.70;;;4.13;;
20185;SDS011;10252;48.792;8.582;2023-12-04T12:49:44;8.20;;;4.65;;
20185;SDS011;10252;48.792;8.582;2023-12-04T12:54:45;8.90;;;4.97;;
20185;SDS011;10252;48.792;8.582;2023-12-04T12:59:47;7.57;;;4.53;;
20185;SDS011;10252;48.792;8.582;2023-12-04T13:04:49;5.88;;;4.03;;
20185;SDS011;10252;48.792;8.582;2023-12-04T13:09:52;4.93;;;3.10;;
20185;SDS011;10252;48.792;8.582;2023-12-04T13:14:57;7.47;;;3.88;;
20185;SDS011;10252;48.792;8.582;2023-12-04T13:19:58;5.60;;;3.85;;
20185;SDS011;10252;48.792;8.582;2023-12-04T13:25:00;5.35;;;3.92;;
20185;SDS011;10252;48.792;8.582;2023-12-04T13:30:03;6.28;;;4.15;;
20185;SDS011;10252;48.792;8.582;2023-12-04T13:35:04;5.50;;;3.90;;
20185;SDS011;10252;48.792;8.582;2023-12-04T13:40:08;5.10;;;3.92;;
20185;SDS011;10252;48.792;8.582;2023-12-04T13:45:16;7.15;;;4.75;;
20185;SDS011;10252;48.792;8.582;2023-12-04T13:50:17;6.50;;;4.03;;
20185;SDS011;10252;48.792;8.582;2023-12-04T13:55:19;7.80;;;4.25;;
20185;SDS011;10252;48.792;8.582;2023-12-04T14:00:22;6.20;;;4.00;;
20185;SDS011;10252;48.792;8.582;2023-12-04T14:05:23;11.63;;;5.63;;
20185;SDS011;10252;48.792;8.582;2023-12-04T14:10:25;6.10;;;4.25;;
20185;SDS011;10252;48.792;8.582;2023-12-04T14:15:27;8.93;;;5.00;;
20185;SDS011;10252;48.792;8.582;2023-12-04T14:20:28;7.78;;;4.97;;
20185;SDS011;10252;48.792;8.582;2023-12-04T14:25:30;6.63;;;4.38;;
20185;SDS011;10252;48.792;8.582;2023-12-04T14:30:32;8.05;;;5.13;;
20185;SDS011;10252;48.792;8.582;2023-12-04T14:35:34;6.93;;;4.47;;
20185;SDS011;10252;48.792;8.582;2023-12-04T14:40:37;7.55;;;4.60;;
20185;SDS011;10252;48.792;8.582;2023-12-04T14:45:39;9.75;;;4.60;;
20185;SDS011;10252;48.792;8.582;2023-12-04T14:50:41;6.78;;;4.63;;
20185;SDS011;10252;48.792;8.582;2023-12-04T14:55:42;8.85;;;5.15;;
20185;SDS011;10252;48.792;8.582;2023-12-04T15:01:04;6.70;;;4.47;;
20185;SDS011;10252;48.792;8.582;2023-12-04T15:06:24;7.30;;;4.40;;
20185;SDS011;10252;48.792;8.582;2023-12-04T15:11:45;7.32;;;4.57;;
20185;SDS011;10252;48.792;8.582;2023-12-04T15:17:05;7.30;;;4.68;;
20185;SDS011;10252;48.792;8.582;2023-12-04T15:22:18;6.57;;;3.92;;
20185;SDS011;10252;48.792;8.582;2023-12-04T15:27:20;8.98;;;4.75;;
20185;SDS011;10252;48.792;8.582;2023-12-04T15:32:21;8.15;;;5.22;;
20185;SDS011;10252;48.792;8.582;2023-12-04T15:37:23;6.82;;;4.25;;
20185;SDS011;10252;48.792;8.582;2023-12-04T15:42:24;6.78;;;4.30;;
20185;SDS011;10252;48.792;8.582;2023-12-04T15:47:27;8.10;;;4.97;;
20185;SDS011;10252;48.792;8.582;2023-12-04T15:52:29;6.28;;;4.60;;
20185;SDS011;10252;48.792;8.582;2023-12-04T15:57:30;7.22;;;4.50;;
20185;SDS011;10252;48.792;8.582;2023-12-04T16:02:32;7.22;;;4.70;;
20185;SDS011;10252;48.792;8.582;2023-12-04T16:07:33;8.00;;;4.72;;
20185;SDS011;10252;48.792;8.582;2023-12-04T16:12:35;7.28;;;4.15;;
20185;SDS011;10252;48.792;8.582;2023-12-04T16:17:36;8.07;;;4.50;;
20185;SDS011;10252;48.792;8.582;2023-12-04T16:22:41;7.47;;;4.40;;
20185;SDS011;10252;48.792;8.582;2023-12-04T16:27:43;8.95;;;4.57;;
20185;SDS011;10252;48.792;8.582;2023-12-04T16:32:48;7.05;;;4.20;;
20185;SDS011;10252;48.792;8.582;2023-12-04T16:37:52;7.05;;;3.70;;
20185;SDS011;10252;48.792;8.582;2023-12-04T16:42:53;6.43;;;3.92;;
20185;SDS011;10252;48.792;8.582;2023-12-04T16:47:57;7.38;;;4.43;;
20185;SDS011;10252;48.792;8.582;2023-12-04T16:52:58;8.65;;;4.05;;
20185;SDS011;10252;48.792;8.582;2023-12-04T16:58:00;6.00;;;3.88;;
20185;SDS011;10252;48.792;8.582;2023-12-04T17:03:04;5.70;;;3.65;;
20185;SDS011;10252;48.792;8.582;2023-12-04T17:08:06;8.60;;;4.78;;
20185;SDS011;10252;48.792;8.582;2023-12-04T17:13:07;6.35;;;3.65;;
20185;SDS011;10252;48.792;8.582;2023-12-04T17:18:09;4.88;;;3.70;;
20185;SDS011;10252;48.792;8.582;2023-12-04T17:23:11;6.63;;;3.97;;
20185;SDS011;10252;48.792;8.582;2023-12-04T17:28:12;5.97;;;3.85;;
20185;SDS011;10252;48.792;8.582;2023-12-04T17:33:14;5.50;;;3.63;;
20185;SDS011;10252;48.792;8.582;2023-12-04T17:38:15;4.00;;;2.75;;
20185;SDS011;10252;48.792;8.582;2023-12-04T17:43:18;7.60;;;3.25;;
20185;SDS011;10252;48.792;8.582;2023-12-04T17:48:20;7.18;;;2.92;;
20185;SDS011;10252;48.792;8.582;2023-12-04T17:53:21;5.85;;;3.00;;
20185;SDS011;10252;48.792;8.582;2023-12-04T17:58:23;4.85;;;2.28;;
20185;SDS011;10252;48.792;8.582;2023-12-04T18:03:24;4.88;;;2.45;;
20185;SDS011;10252;48.792;8.582;2023-12-04T18:08:26;3.83;;;2.67;;
20185;SDS011;10252;48.792;8.582;2023-12-04T18:13:29;4.65;;;2.67;;
20185;SDS011;10252;48.792;8.582;2023-12-04T18:18:31;4.03;;;2.60;;
20185;SDS011;10252;48.792;8.582;2023-12-04T18:23:33;3.67;;;2.40;;
20185;SDS011;10252;48.792;8.582;2023-12-04T18:28:35;4.25;;;2.35;;
20185;SDS011;10252;48.792;8.582;2023-12-04T18:33:38;4.00;;;2.55;;
20185;SDS011;10252;48.792;8.582;2023-12-04T18:43:45;3.28;;;2.47;;
20185;SDS011;10252;48.792;8.582;2023-12-04T18:48:48;5.25;;;2.70;;
20185;SDS011;10252;48.792;8.582;2023-12-04T18:53:49;4.88;;;3.10;;
20185;SDS011;10252;48.792;8.582;2023-12-04T18:58:51;3.85;;;2.60;;
20185;SDS011;10252;48.792;8.582;2023-12-04T19:03:52;5.40;;;3.10;;
20185;SDS011;10252;48.792;8.582;2023-12-04T19:08:54;4.75;;;2.67;;
20185;SDS011;10252;48.792;8.582;2023-12-04T19:13:55;7.38;;;3.38;;
20185;SDS011;10252;48.792;8.582;2023-12-04T19:18:57;5.93;;;3.42;;
20185;SDS011;10252;48.792;8.582;2023-12-04T19:23:59;7.40;;;2.60;;
20185;SDS011;10252;48.792;8.582;2023-12-04T19:29:00;5.18;;;2.80;;
20185;SDS011;10252;48.792;8.582;2023-12-04T19:34:02;7.50;;;4.20;;
20185;SDS011;10252;48.792;8.582;2023-12-04T19:39:04;9.80;;;4.15;;
20185;SDS011;10252;48.792;8.582;2023-12-04T19:44:07;5.22;;;3.15;;
20185;SDS011;10252;48.792;8.582;2023-12-04T19:49:09;12.13;;;4.22;;
20185;SDS011;10252;48.792;8.582;2023-12-04T19:54:11;12.15;;;4.85;;
20185;SDS011;10252;48.792;8.582;2023-12-04T19:59:13;12.32;;;4.88;;
20185;SDS011;10252;48.792;8.582;2023-12-04T20:04:14;11.07;;;5.35;;
20185;SDS011;10252;48.792;8.582;2023-12-04T20:09:15;13.20;;;5.78;;
20185;SDS011;10252;48.792;8.582;2023-12-04T20:14:17;11.15;;;6.55;;
20185;SDS011;10252;48.792;8.582;2023-12-04T20:19:18;10.77;;;7.53;;
20185;SDS011;10252;48.792;8.582;2023-12-04T20:24:20;10.57;;;7.07;;
20185;SDS011;10252;48.792;8.582;2023-12-04T20:29:22;10.82;;;6.75;;
20185;SDS011;10252;48.792;8.582;2023-12-04T20:34:23;14.02;;;6.97;;
20185;SDS011;10252;48.792;8.582;2023-12-04T20:39:25;8.95;;;5.78;;
20185;SDS011;10252;48.792;8.582;2023-12-04T20:44:26;12.43;;;6.97;;
20185;SDS011;10252;48.792;8.582;2023-12-04T20:49:28;11.27;;;7.78;;
20185;SDS011;10252;48.792;8.582;2023-12-04T20:54:30;11.00;;;6.45;;
20185;SDS011;10252;48.792;8.582;2023-12-04T20:59:32;12.55;;;6.40;;
20185;SDS011;10252;48.792;8.582;2023-12-04T21:04:34;12.60;;;6.47;;
20185;SDS011;10252;48.792;8.582;2023-12-04T21:09:35;7.82;;;4.68;;
20185;SDS011;10252;48.792;8.582;2023-12-04T21:14:38;9.23;;;5.63;;
20185;SDS011;10252;48.792;8.582;2023-12-04T21:19:40;8.32;;;5.75;;
20185;SDS011;10252;48.792;8.582;2023-12-04T21:24:41;10.95;;;6.40;;
20185;SDS011;10252;48.792;8.582;2023-12-04T21:29:42;34.15;;;16.15;;
20185;SDS011;10252;48.792;8.582;2023-12-04T21:34:45;9.60;;;6.47;;
20185;SDS011;10252;48.792;8.582;2023-12-04T21:39:46;10.68;;;5.57;;
20185;SDS011;10252;48.792;8.582;2023-12-04T21:44:50;7.85;;;6.07;;
20185;SDS011;10252;48.792;8.582;2023-12-04T21:49:51;11.60;;;5.95;;
20185;SDS011;10252;48.792;8.582;2023-12-04T21:54:53;10.55;;;5.78;;
20185;SDS011;10252;48.792;8.582;2023-12-04T21:59:54;10.85;;;5.50;;
20185;SDS011;10252;48.792;8.582;2023-12-04T22:04:56;15.50;;;7.05;;
20185;SDS011;10252;48.792;8.582;2023-12-04T22:09:57;17.55;;;7.88;;
20185;SDS011;10252;48.792;8.582;2023-12-04T22:14:59;11.57;;;5.53;;
20185;SDS011;10252;48.792;8.582;2023-12-04T22:20:01;9.68;;;4.80;;
20185;SDS011;10252;48.792;8.582;2023-12-04T22:25:04;9.13;;;5.60;;
20185;SDS011;10252;48.792;8.582;2023-12-04T22:30:06;8.40;;;4.97;;
20185;SDS011;10252;48.792;8.582;2023-12-04T22:35:07;10.35;;;5.25;;
20185;SDS011;10252;48.792;8.582;2023-12-04T22:40:09;9.95;;;4.97;;
20185;SDS011;10252;48.792;8.582;2023-12-04T22:45:11;16.52;;;5.70;;
20185;SDS011;10252;48.792;8.582;2023-12-04T22:50:13;9.65;;;4.50;;
20185;SDS011;10252;48.792;8.582;2023-12-04T22:55:14;9.15;;;4.93;;
20185;SDS011;10252;48.792;8.582;2023-12-04T23:00:16;10.18;;;5.65;;
20185;SDS011;10252;48.792;8.582;2023-12-04T23:05:20;11.23;;;5.57;;
20185;SDS011;10252;48.792;8.582;2023-12-04T23:10:22;10.32;;;5.82;;
20185;SDS011;10252;48.792;8.582;2023-12-04T23:15:24;9.98;;;5.35;;
20185;SDS011;10252;48.792;8.582;2023-12-04T23:20:26;10.15;;;5.22;;
20185;SDS011;10252;48.792;8.582;2023-12-04T23:25:27;10.20;;;5.10;;
20185;SDS011;10252;48.792;8.582;2023-12-04T23:30:30;8.88;;;4.45;;
20185;SDS011;10252;48.792;8.582;2023-12-04T23:35:31;12.73;;;6.38;;
20185;SDS011;10252;48.792;8.582;2023-12-04T23:40:32;13.35;;;5.97;;
20185;SDS011;10252;48.792;8.582;2023-12-04T23:45:34;9.18;;;5.22;;
20185;SDS011;10252;48.792;8.582;2023-12-04T23:50:37;12.98;;;5.22;;
20185;SDS011;10252;48.792;8.582;2023-12-04T23:55:39;7.45;;;4.72;;
